Fairfield, Mississippi
Current Conditions -  °F | °C
As of 1:53 AM on Friday 21 Nov 2014 (Local Time) from KTUP Reporting Station
Overcast Overcast  
Wind Chill: 36°   Ceiling: 7000
Heat Index: 40°   Visibility: 10mi
Dew Point: 33°   Wind: 6mph
Humidity: 77%   Direction: 30°NNE
Pressure: 30.28"   Gusts: NA
Location:  34.4333°N, 88.8629°W
Report Text: KTUP 210753Z AUTO 03005KT 10SM BKN070 OVC090 04/01 A3028 RMK AO2 SLP252 T00440006
Loading
Personal Weather Stations






























Interactive Weather Map New forecast layout! Learn more

10-Day Weather Forecast

Advertisements
Track Severe Weather on mobile